createdAt,value
2022-10-05T00:00:45.658Z,101625.31
2022-10-05T00:03:13.415Z,101625.28
2022-10-05T00:05:41.779Z,101627.16
2022-10-05T00:08:16.877Z,101621.78
2022-10-05T00:10:46.387Z,101613.72
2022-10-05T00:13:15.111Z,101620.88
2022-10-05T00:15:43.748Z,101617.28
2022-10-05T00:18:15.344Z,101613.69
2022-10-05T00:20:44.508Z,101612.78
2022-10-05T00:23:19.760Z,101610.09
2022-10-05T00:25:47.873Z,101614.59
2022-10-05T00:28:22.942Z,101606.63
2022-10-05T00:30:50.782Z,101613.78
2022-10-05T00:33:18.581Z,101616.56
2022-10-05T00:35:46.365Z,101622.88
2022-10-05T00:38:15.487Z,101625.63
2022-10-05T00:40:55.523Z,101620.28
2022-10-05T00:43:38.427Z,101610.41
2022-10-05T00:46:10.900Z,101614.00
2022-10-05T00:48:43.329Z,101607.72
2022-10-05T00:51:22.784Z,101613.94
2022-10-05T00:54:06.729Z,101615.72
2022-10-05T00:56:50.040Z,101616.56
2022-10-05T00:59:30.824Z,101608.50
2022-10-05T01:02:01.742Z,101601.28
2022-10-05T01:04:40.162Z,101599.50
2022-10-05T01:07:16.968Z,101592.28
2022-10-05T01:09:57.023Z,101591.44
2022-10-05T01:12:33.274Z,101590.56
2022-10-05T01:15:06.348Z,101587.91
2022-10-05T01:17:42.332Z,101584.31
2022-10-05T01:20:28.326Z,101578.97
2022-10-05T01:23:38.771Z,101577.19
2022-10-05T01:26:29.764Z,101579.03
2022-10-05T01:29:06.388Z,101579.03
2022-10-05T01:31:40.850Z,101585.41
2022-10-05T01:34:14.631Z,101574.72
2022-10-05T01:36:53.214Z,101575.69
2022-10-05T01:39:32.459Z,101570.38
2022-10-05T01:42:07.419Z,101574.03
2022-10-05T01:44:45.388Z,101555.28
2022-10-05T01:47:21.149Z,101561.63
2022-10-05T01:50:01.180Z,101559.91
2022-10-05T01:52:35.176Z,101555.47
2022-10-05T01:55:16.713Z,101552.84
2022-10-05T01:57:59.022Z,101548.41
2022-10-05T02:00:31.870Z,101547.56
2022-10-05T02:03:05.980Z,101545.78
2022-10-05T02:05:39.726Z,101553.81
2022-10-05T02:08:12.415Z,101555.59
2022-10-05T02:10:47.334Z,101560.94
2022-10-05T02:13:22.411Z,101554.63
2022-10-05T02:15:57.964Z,101553.75
2022-10-05T02:18:35.454Z,101560.06
2022-10-05T02:21:05.297Z,101555.53
2022-10-05T02:23:37.500Z,101559.09
2022-10-05T02:26:07.499Z,101544.72
2022-10-05T02:28:40.897Z,101534.84
2022-10-05T02:31:12.347Z,101528.50
2022-10-05T02:33:40.410Z,101523.06
2022-10-05T02:36:15.078Z,101523.94
2022-10-05T02:39:04.824Z,101528.38
2022-10-05T02:41:45.895Z,101524.78
2022-10-05T02:44:25.155Z,101525.69
2022-10-05T02:47:06.272Z,101524.78
2022-10-05T02:49:41.877Z,101525.69
2022-10-05T02:52:17.597Z,101525.69
2022-10-05T02:54:55.221Z,101511.28
2022-10-05T02:57:29.420Z,101509.47
2022-10-05T03:00:06.919Z,101517.50
2022-10-05T03:02:44.026Z,101522.84
2022-10-05T03:05:21.360Z,101512.94
2022-10-05T03:07:56.816Z,101520.94
2022-10-05T03:10:30.421Z,101512.00
2022-10-05T03:13:04.927Z,101513.72
2022-10-05T03:16:00.014Z,101492.19
2022-10-05T03:18:39.833Z,101494.84
2022-10-05T03:21:21.174Z,101484.97
2022-10-05T03:24:01.462Z,101478.72
2022-10-05T03:26:41.819Z,101476.94
2022-10-05T03:29:21.960Z,101479.63
2022-10-05T03:31:56.268Z,101477.03
2022-10-05T03:34:34.672Z,101484.16
2022-10-05T03:37:11.613Z,101477.03
2022-10-05T03:39:44.783Z,101470.72
2022-10-05T03:42:22.106Z,101473.41
2022-10-05T03:44:58.050Z,101471.63
2022-10-05T03:47:37.038Z,101461.75
2022-10-05T03:50:24.215Z,101463.56
2022-10-05T03:52:56.897Z,101463.56
2022-10-05T03:55:29.519Z,101466.28
2022-10-05T03:58:01.214Z,101466.28
2022-10-05T04:00:31.829Z,101466.28
2022-10-05T04:03:04.503Z,101465.38
2022-10-05T04:05:39.277Z,101471.63
2022-10-05T04:08:14.376Z,101459.06
2022-10-05T04:10:46.510Z,101458.19
2022-10-05T04:13:20.113Z,101462.66
2022-10-05T04:15:55.869Z,101466.22
2022-10-05T04:18:31.009Z,101465.34
2022-10-05T04:21:05.813Z,101470.69
2022-10-05T04:23:45.715Z,101461.69
2022-10-05T04:26:18.862Z,101465.28
2022-10-05T04:28:54.164Z,101465.31
2022-10-05T04:31:38.270Z,101464.44
2022-10-05T04:34:15.717Z,101458.13
2022-10-05T04:36:52.162Z,101458.13
2022-10-05T04:39:28.098Z,101466.19
2022-10-05T04:42:07.533Z,101465.31
2022-10-05T04:44:45.934Z,101452.75
2022-10-05T04:47:31.734Z,101455.44
2022-10-05T04:50:16.578Z,101457.19
2022-10-05T04:52:57.043Z,101463.44
2022-10-05T04:55:31.452Z,101467.91
2022-10-05T04:58:09.928Z,101464.28
2022-10-05T05:00:52.114Z,101470.47
2022-10-05T05:03:40.708Z,101471.41
2022-10-05T05:06:19.702Z,101472.28
2022-10-05T05:09:08.718Z,101459.69
2022-10-05T05:11:44.172Z,101464.09
2022-10-05T05:14:27.992Z,101469.31
2022-10-05T05:17:03.533Z,101461.25
2022-10-05T05:19:43.121Z,101467.50
2022-10-05T05:22:20.096Z,101458.56
2022-10-05T05:25:11.094Z,101458.56
2022-10-05T05:27:43.942Z,101463.03
2022-10-05T05:30:21.560Z,101453.19
2022-10-05T05:33:05.217Z,101453.97
2022-10-05T05:36:01.330Z,101449.53
2022-10-05T05:38:34.453Z,101459.31
2022-10-05T05:41:10.476Z,101461.97
2022-10-05T05:43:53.220Z,101459.22
2022-10-05T05:46:51.299Z,101460.97
2022-10-05T05:49:19.306Z,101465.41
2022-10-05T05:51:53.267Z,101455.53
2022-10-05T05:54:32.511Z,101448.28
2022-10-05T05:57:11.132Z,101454.53
2022-10-05T05:59:50.563Z,101455.41
2022-10-05T06:02:21.503Z,101452.66
2022-10-05T06:04:53.449Z,101457.16
2022-10-05T06:07:30.144Z,101446.38
2022-10-05T06:10:05.829Z,101456.25
2022-10-05T06:12:39.645Z,101461.56
2022-10-05T06:15:18.565Z,101457.03
2022-10-05T06:17:50.155Z,101458.84
2022-10-05T06:20:25.170Z,101459.72
2022-10-05T06:22:54.355Z,101461.50
2022-10-05T06:25:34.663Z,101454.28
2022-10-05T06:28:10.670Z,101452.41
2022-10-05T06:30:49.696Z,101458.63
2022-10-05T06:33:31.955Z,101465.75
2022-10-05T06:36:13.759Z,101464.81
2022-10-05T06:39:02.907Z,101472.03
2022-10-05T06:41:42.580Z,101468.41
2022-10-05T06:44:17.209Z,101467.44
2022-10-05T06:46:56.660Z,101470.13
2022-10-05T06:49:28.273Z,101471.09
2022-10-05T06:52:00.905Z,101474.69
2022-10-05T06:54:43.289Z,101468.38
2022-10-05T06:57:18.375Z,101475.56
2022-10-05T06:59:53.255Z,101477.25
2022-10-05T07:02:30.405Z,101480.03
2022-10-05T07:05:21.240Z,101470.91
2022-10-05T07:07:54.649Z,101472.75
2022-10-05T07:10:32.337Z,101467.41
2022-10-05T07:13:29.745Z,101462.94
2022-10-05T07:16:07.039Z,101465.56
2022-10-05T07:18:48.066Z,101471.81
2022-10-05T07:21:28.312Z,101464.66
2022-10-05T07:24:06.494Z,101457.44
2022-10-05T07:26:38.370Z,101461.03
2022-10-05T07:29:25.818Z,101451.13
2022-10-05T07:32:08.616Z,101468.13
2022-10-05T07:34:48.021Z,101458.25
2022-10-05T07:37:38.545Z,101456.50
2022-10-05T07:40:13.475Z,101462.78
2022-10-05T07:42:56.480Z,101464.59
2022-10-05T07:45:30.417Z,101466.34
2022-10-05T07:48:05.243Z,101469.00
2022-10-05T07:50:39.663Z,101476.94
2022-10-05T07:53:14.932Z,101480.44
2022-10-05T07:55:48.139Z,101466.88
2022-10-05T07:58:21.554Z,101472.16
2022-10-05T08:01:05.861Z,101476.56
2022-10-05T08:03:46.291Z,101470.25
2022-10-05T08:06:34.689Z,101480.03
2022-10-05T08:09:13.845Z,101471.91
2022-10-05T08:11:49.496Z,101469.13
2022-10-05T08:14:25.662Z,101480.72
2022-10-05T08:16:58.586Z,101479.81
2022-10-05T08:19:35.576Z,101474.34
2022-10-05T08:22:07.317Z,101482.31
2022-10-05T08:24:44.643Z,101471.47
2022-10-05T08:27:17.739Z,101464.16
2022-10-05T08:29:56.426Z,101477.56
2022-10-05T08:32:27.413Z,101465.78
2022-10-05T08:35:02.603Z,101470.19
2022-10-05T08:37:35.462Z,101458.41
2022-10-05T08:40:33.270Z,101449.34
2022-10-05T08:43:17.162Z,101458.25
2022-10-05T08:46:03.810Z,101457.28
2022-10-05T08:49:04.425Z,101461.72
2022-10-05T08:52:08.677Z,101461.66
2022-10-05T08:54:59.642Z,101457.19
2022-10-05T08:57:51.957Z,101457.03
2022-10-05T09:00:21.968Z,101449.72
2022-10-05T09:03:18.886Z,101448.72
2022-10-05T09:06:25.787Z,101440.47
2022-10-05T09:09:23.157Z,101439.50
2022-10-05T09:12:05.870Z,101441.94
2022-10-05T09:14:56.635Z,101443.66
2022-10-05T09:18:08.607Z,101441.50
2022-10-05T09:20:50.294Z,101438.72
2022-10-05T09:23:37.068Z,101434.03
2022-10-05T09:26:10.419Z,101425.84
2022-10-05T09:28:57.478Z,101424.88
2022-10-05T09:31:51.607Z,101433.63
2022-10-05T09:34:42.927Z,101428.13
2022-10-05T09:37:53.419Z,101426.94
2022-10-05T09:41:00.951Z,101425.97
2022-10-05T09:44:01.366Z,101423.09
2022-10-05T09:46:53.473Z,101416.66
2022-10-05T09:49:44.451Z,101423.81
2022-10-05T09:52:35.999Z,101408.38
2022-10-05T09:55:51.720Z,101409.94
2022-10-05T09:59:07.686Z,101401.59
2022-10-05T10:01:58.120Z,101392.31
2022-10-05T10:04:49.162Z,101401.22
2022-10-05T10:07:53.232Z,101403.94
2022-10-05T10:10:57.322Z,101401.09
2022-10-05T10:14:12.983Z,101401.97
2022-10-05T10:17:02.800Z,101388.16
2022-10-05T10:19:58.374Z,101387.09
2022-10-05T10:22:48.998Z,101394.09
2022-10-05T10:25:52.232Z,101386.59
2022-10-05T10:28:37.665Z,101388.09
2022-10-05T10:31:29.991Z,101382.34
2022-10-05T10:34:15.049Z,101380.44
2022-10-05T10:37:10.941Z,101381.03
2022-10-05T10:39:54.639Z,101387.34
2022-10-05T10:42:40.871Z,101381.03
2022-10-05T10:45:35.574Z,101371.88
2022-10-05T10:48:06.092Z,101378.03
2022-10-05T10:51:03.141Z,101387.59
2022-10-05T10:53:49.111Z,101361.22
2022-10-05T10:56:49.493Z,101367.31
2022-10-05T10:59:53.984Z,101360.75
2022-10-05T11:02:42.816Z,101373.13
2022-10-05T11:05:29.889Z,101360.16
2022-10-05T11:08:28.547Z,101348.03
2022-10-05T11:11:17.733Z,101348.88
2022-10-05T11:14:15.172Z,101339.97
2022-10-05T11:17:09.585Z,101338.97
2022-10-05T11:20:17.585Z,101338.91
2022-10-05T11:22:55.927Z,101322.22
2022-10-05T11:25:48.798Z,101321.03
2022-10-05T11:28:36.345Z,101310.25
2022-10-05T11:31:42.541Z,101306.50
2022-10-05T11:34:34.925Z,101299.97
2022-10-05T11:37:31.840Z,101306.91
2022-10-05T11:40:33.264Z,101302.50
2022-10-05T11:43:38.043Z,101297.47
2022-10-05T11:46:18.255Z,101296.09
2022-10-05T11:49:16.938Z,101272.56
2022-10-05T11:51:54.325Z,101280.53
2022-10-05T11:55:10.438Z,101280.06
2022-10-05T11:57:49.150Z,101262.78
2022-10-05T12:00:21.100Z,101265.44
2022-10-05T12:03:09.356Z,101258.31
2022-10-05T12:05:49.905Z,101257.44
2022-10-05T12:08:29.089Z,101244.88
2022-10-05T12:11:08.866Z,101241.03
2022-10-05T12:13:47.456Z,101240.09
2022-10-05T12:16:22.114Z,101224.81
2022-10-05T12:18:58.193Z,101222.97
2022-10-05T12:21:34.883Z,101230.25
2022-10-05T12:24:13.680Z,101211.88
2022-10-05T12:26:48.433Z,101221.66
2022-10-05T12:29:21.635Z,101209.84
2022-10-05T12:31:59.839Z,101197.03
2022-10-05T12:34:39.289Z,101193.25
2022-10-05T12:37:14.930Z,101195.59
2022-10-05T12:39:51.602Z,101199.72
2022-10-05T12:42:29.701Z,101190.28
2022-10-05T12:45:09.893Z,101181.94
2022-10-05T12:47:54.409Z,101178.03
2022-10-05T12:50:27.246Z,101180.72
2022-10-05T12:53:10.488Z,101176.88
2022-10-05T12:55:49.788Z,101173.28
2022-10-05T12:58:27.797Z,101172.28
2022-10-05T13:01:02.365Z,101169.63
2022-10-05T13:03:38.479Z,101171.25
2022-10-05T13:06:15.367Z,101158.63
2022-10-05T13:08:52.413Z,101150.41
2022-10-05T13:11:28.535Z,101150.13
2022-10-05T13:14:05.203Z,101147.47
2022-10-05T13:16:40.663Z,101156.44
2022-10-05T13:19:25.548Z,101140.00
2022-10-05T13:22:17.222Z,101141.84
2022-10-05T13:24:56.724Z,101132.81
2022-10-05T13:27:28.779Z,101136.34
2022-10-05T13:30:03.059Z,101133.41
2022-10-05T13:32:36.337Z,101132.31
2022-10-05T13:35:23.222Z,101107.72
2022-10-05T13:38:02.732Z,101114.69
2022-10-05T13:40:36.651Z,101119.81
2022-10-05T13:43:14.467Z,101116.22
2022-10-05T13:45:52.666Z,101115.13
2022-10-05T13:48:47.328Z,101105.88
2022-10-05T13:51:22.444Z,101111.25
2022-10-05T13:53:56.032Z,101117.53
2022-10-05T13:56:30.105Z,101123.56
2022-10-05T13:59:12.363Z,101121.69
2022-10-05T14:01:44.961Z,101123.13
2022-10-05T14:04:19.751Z,101132.16
2022-10-05T14:06:50.212Z,101127.72
2022-10-05T14:09:29.776Z,101121.97
2022-10-05T14:12:14.519Z,101113.09
2022-10-05T14:14:49.053Z,101116.69
2022-10-05T14:17:32.110Z,101113.09
2022-10-05T14:20:02.935Z,101108.53
2022-10-05T14:22:42.973Z,101110.94
2022-10-05T14:25:17.083Z,101112.84
2022-10-05T14:27:51.735Z,101109.97
2022-10-05T14:30:22.122Z,101110.94
2022-10-05T14:32:52.511Z,101105.56
2022-10-05T14:35:22.169Z,101113.72
2022-10-05T14:37:57.224Z,101111.09
2022-10-05T14:40:33.709Z,101115.66
2022-10-05T14:43:18.259Z,101114.59
2022-10-05T14:45:57.388Z,101121.81
2022-10-05T14:48:27.982Z,101111.81
2022-10-05T14:50:57.920Z,101114.53
2022-10-05T14:53:38.102Z,101130.63
2022-10-05T14:56:23.776Z,101121.44
2022-10-05T14:59:22.164Z,101115.91
2022-10-05T15:01:56.497Z,101114.06
2022-10-05T15:04:50.073Z,101129.78
2022-10-05T15:07:25.480Z,101125.63
2022-10-05T15:10:22.551Z,101121.44
2022-10-05T15:12:51.962Z,101133.13
2022-10-05T15:15:29.245Z,101131.53
2022-10-05T15:18:02.263Z,101123.69
2022-10-05T15:20:36.950Z,101139.75
2022-10-05T15:23:24.841Z,101132.41
2022-10-05T15:26:04.122Z,101125.38
2022-10-05T15:28:38.557Z,101133.06
2022-10-05T15:31:14.494Z,101137.75
2022-10-05T15:33:53.751Z,101138.59
2022-10-05T15:36:26.827Z,101144.88
2022-10-05T15:39:05.943Z,101162.13
2022-10-05T15:41:55.278Z,101142.31
2022-10-05T15:44:39.799Z,101168.81
2022-10-05T15:47:13.158Z,101165.13
2022-10-05T15:49:49.537Z,101168.13
2022-10-05T15:52:25.574Z,101169.09
2022-10-05T15:55:20.863Z,101184.50
2022-10-05T15:57:59.540Z,101195.59
2022-10-05T16:00:30.171Z,101193.03
2022-10-05T16:03:11.169Z,101202.34
2022-10-05T16:06:02.729Z,101205.25
2022-10-05T16:08:56.280Z,101204.50
2022-10-05T16:11:36.946Z,101216.59
2022-10-05T16:14:20.766Z,101221.22
2022-10-05T16:17:03.368Z,101221.69
2022-10-05T16:19:38.098Z,101232.03
2022-10-05T16:22:16.980Z,101233.91
2022-10-05T16:25:07.341Z,101236.78
2022-10-05T16:27:48.346Z,101241.44
2022-10-05T16:30:20.830Z,101249.75
2022-10-05T16:32:57.830Z,101259.66
2022-10-05T16:35:37.456Z,101261.53
2022-10-05T16:38:18.699Z,101270.84
2022-10-05T16:40:59.709Z,101279.19
2022-10-05T16:43:41.463Z,101290.38
2022-10-05T16:46:22.274Z,101305.94
2022-10-05T16:49:00.180Z,101318.97
2022-10-05T16:51:34.379Z,101323.88
2022-10-05T16:54:13.278Z,101332.47
2022-10-05T16:56:44.523Z,101328.63
2022-10-05T16:59:39.498Z,101339.91
2022-10-05T17:02:20.597Z,101336.69
2022-10-05T17:05:00.778Z,101349.69
2022-10-05T17:07:55.753Z,101340.94
2022-10-05T17:10:38.904Z,101350.06
2022-10-05T17:13:19.671Z,101343.91
2022-10-05T17:16:04.003Z,101348.56
2022-10-05T17:19:09.188Z,101354.84
2022-10-05T17:21:44.459Z,101363.84
2022-10-05T17:24:49.592Z,101358.56
2022-10-05T17:27:26.859Z,101380.28
2022-10-05T17:29:56.488Z,101373.00
2022-10-05T17:32:57.281Z,101378.41
2022-10-05T17:35:50.848Z,101385.63
2022-10-05T17:38:22.473Z,101393.00
2022-10-05T17:41:19.044Z,101392.09
2022-10-05T17:44:21.751Z,101409.50
2022-10-05T17:46:51.640Z,101412.34
2022-10-05T17:49:39.184Z,101418.59
2022-10-05T17:52:40.996Z,101410.56
2022-10-05T17:55:28.244Z,101417.91
2022-10-05T17:57:59.762Z,101413.41
2022-10-05T18:00:41.929Z,101416.13
2022-10-05T18:03:40.717Z,101414.16
2022-10-05T18:06:31.923Z,101415.09
2022-10-05T18:09:39.150Z,101403.38
2022-10-05T18:12:25.656Z,101411.56
2022-10-05T18:15:14.247Z,101415.22
2022-10-05T18:17:46.393Z,101415.25
2022-10-05T18:20:21.662Z,101411.69
2022-10-05T18:22:50.470Z,101412.56
2022-10-05T18:25:30.169Z,101410.72
2022-10-05T18:28:22.432Z,101411.50
2022-10-05T18:31:11.132Z,101426.72
2022-10-05T18:33:59.778Z,101415.88
2022-10-05T18:36:54.239Z,101424.09
2022-10-05T18:39:40.145Z,101412.28
2022-10-05T18:42:16.547Z,101420.28
2022-10-05T18:44:50.575Z,101417.59
2022-10-05T18:47:24.214Z,101421.31
2022-10-05T18:50:06.069Z,101419.41
2022-10-05T18:52:45.664Z,101420.28
2022-10-05T18:55:20.143Z,101431.22
2022-10-05T18:58:20.461Z,101427.81
2022-10-05T19:01:40.289Z,101427.88
2022-10-05T19:04:22.248Z,101421.44
2022-10-05T19:07:00.559Z,101425.06
2022-10-05T19:09:47.025Z,101427.75
2022-10-05T19:12:24.695Z,101428.69
2022-10-05T19:15:00.183Z,101436.00
2022-10-05T19:17:43.642Z,101429.56
2022-10-05T19:20:20.646Z,101433.28
2022-10-05T19:23:09.396Z,101432.31
2022-10-05T19:25:43.479Z,101432.22
2022-10-05T19:28:22.608Z,101430.47
2022-10-05T19:31:02.483Z,101434.00
2022-10-05T19:33:44.804Z,101426.03
2022-10-05T19:36:26.226Z,101431.28
2022-10-05T19:39:04.524Z,101427.72
2022-10-05T19:41:45.442Z,101441.19
2022-10-05T19:44:24.113Z,101434.88
2022-10-05T19:47:01.117Z,101428.59
2022-10-05T19:49:44.391Z,101430.34
2022-10-05T19:52:14.744Z,101431.34
2022-10-05T19:54:43.577Z,101426.03
2022-10-05T19:57:18.074Z,101427.94
2022-10-05T19:59:47.785Z,101426.03
2022-10-05T20:02:17.083Z,101436.00
2022-10-05T20:04:49.516Z,101444.72
2022-10-05T20:07:21.556Z,101445.63
2022-10-05T20:09:55.015Z,101446.50
2022-10-05T20:12:23.705Z,101445.47
2022-10-05T20:15:26.343Z,101448.28
2022-10-05T20:18:11.822Z,101456.69
2022-10-05T20:20:45.779Z,101462.44
2022-10-05T20:23:23.750Z,101453.63
2022-10-05T20:26:05.953Z,101459.19
2022-10-05T20:28:34.082Z,101468.13
2022-10-05T20:31:02.085Z,101470.09
2022-10-05T20:33:30.367Z,101469.19
2022-10-05T20:35:59.512Z,101480.91
2022-10-05T20:38:27.624Z,101476.25
2022-10-05T20:40:55.552Z,101486.00
2022-10-05T20:43:23.358Z,101495.13
2022-10-05T20:45:52.315Z,101488.78
2022-10-05T20:48:20.130Z,101502.94
2022-10-05T20:50:49.053Z,101498.41
2022-10-05T20:53:18.167Z,101498.41
2022-10-05T20:55:45.994Z,101509.34
2022-10-05T20:58:13.673Z,101512.09
2022-10-05T21:00:59.144Z,101507.53
2022-10-05T21:03:27.024Z,101513.84
2022-10-05T21:05:54.750Z,101524.66
2022-10-05T21:08:25.129Z,101524.66
2022-10-05T21:10:53.098Z,101528.31
2022-10-05T21:13:20.893Z,101534.69
2022-10-05T21:15:48.694Z,101532.91
2022-10-05T21:18:16.758Z,101540.97
2022-10-05T21:20:50.526Z,101540.91
2022-10-05T21:23:18.242Z,101553.59
2022-10-05T21:25:48.343Z,101560.81
2022-10-05T21:28:16.395Z,101584.28
2022-10-05T21:30:44.242Z,101596.06
2022-10-05T21:33:12.093Z,101599.63
2022-10-05T21:35:39.784Z,101587.94
2022-10-05T21:38:07.522Z,101607.97
2022-10-05T21:40:35.315Z,101612.66
2022-10-05T21:43:04.672Z,101615.34
2022-10-05T21:45:32.612Z,101616.19
2022-10-05T21:48:00.409Z,101612.84
2022-10-05T21:50:28.410Z,101614.88
2022-10-05T21:52:56.148Z,101617.72
2022-10-05T21:55:23.945Z,101620.66
2022-10-05T21:57:51.732Z,101623.56
2022-10-05T22:00:20.910Z,101631.91
2022-10-05T22:02:48.654Z,101645.66
2022-10-05T22:05:16.594Z,101652.97
2022-10-05T22:07:44.545Z,101657.66
2022-10-05T22:10:12.440Z,101656.75
2022-10-05T22:12:41.528Z,101646.06
2022-10-05T22:15:10.506Z,101654.19
2022-10-05T22:17:42.176Z,101665.88
2022-10-05T22:20:13.237Z,101665.97
2022-10-05T22:22:41.027Z,101675.97
2022-10-05T22:25:09.381Z,101674.31
2022-10-05T22:27:37.308Z,101689.72
2022-10-05T22:30:06.021Z,101694.38
2022-10-05T22:32:33.731Z,101710.59
2022-10-05T22:35:03.758Z,101723.28
2022-10-05T22:37:37.661Z,101744.03
2022-10-05T22:40:06.380Z,101778.28
2022-10-05T22:42:34.313Z,101779.69
2022-10-05T22:45:02.055Z,101793.13
2022-10-05T22:47:29.878Z,101787.41
2022-10-05T22:49:57.595Z,101799.50
2022-10-05T22:52:27.226Z,101815.69
2022-10-05T22:54:55.079Z,101817.66
2022-10-05T22:57:22.853Z,101829.47
2022-10-05T22:59:50.555Z,101835.06
2022-10-05T23:02:19.832Z,101838.03
2022-10-05T23:04:47.778Z,101834.59
2022-10-05T23:07:15.508Z,101857.19
2022-10-05T23:09:44.867Z,101866.13
2022-10-05T23:12:13.606Z,101854.53
2022-10-05T23:14:41.595Z,101850.09
2022-10-05T23:17:09.310Z,101849.25
2022-10-05T23:19:37.022Z,101850.25
2022-10-05T23:22:04.759Z,101843.97
2022-10-05T23:24:32.465Z,101833.16
2022-10-05T23:27:01.719Z,101856.50
2022-10-05T23:29:29.512Z,101867.28
2022-10-05T23:31:57.210Z,101859.28
2022-10-05T23:34:25.662Z,101858.44
2022-10-05T23:36:53.350Z,101866.50
2022-10-05T23:39:21.046Z,101872.81
2022-10-05T23:41:48.712Z,101876.41
2022-10-05T23:44:17.833Z,101880.91
2022-10-05T23:46:45.556Z,101887.25
2022-10-05T23:49:14.891Z,101892.69
2022-10-05T23:51:42.827Z,101889.06
2022-10-05T23:54:10.566Z,101903.50
2022-10-05T23:56:38.306Z,101916.16
2022-10-05T23:59:06.029Z,101916.16
